Time;durP1;ratioP1;P1;durP2;ratioP2;P2;SDS_P1;SDS_P2;PMS_P1;PMS_P2;Temp;Humidity;BMP_temperature;BMP_pressure;BME280_temperature;BME280_humidity;BME280_pressure;Samples;Min_cycle;Max_cycle;Signal;HPM_P1;HPM_P2
2023/07/19 00:00:24;;;;;;;0.10;0.10;;;;;;;21.07;nan;100217.16;5056334;28;20048;-83
2023/07/19 00:02:50;;;;;;;0.00;0.00;;;;;;;21.11;nan;100216.47;5047110;28;20118;-83
2023/07/19 00:05:15;;;;;;;0.10;0.10;;;;;;;21.14;nan;100213.34;5046598;28;20060;-83
2023/07/19 00:07:41;;;;;;;0.10;0.10;;;;;;;21.17;nan;100210.19;5064165;28;20047;-84
2023/07/19 00:10:09;;;;;;;0.10;0.10;;;;;;;21.21;nan;100214.06;5057278;28;20486;-83
2023/07/19 00:12:35;;;;;;;0.10;0.10;;;;;;;21.23;nan;100211.13;5046062;28;20029;-83
2023/07/19 00:15:01;;;;;;;0.10;0.10;;;;;;;21.21;nan;100200.63;5064304;28;20048;-84
2023/07/19 00:17:26;;;;;;;0.10;0.10;;;;;;;21.19;nan;100204.59;5058216;28;20048;-84
2023/07/19 00:19:52;;;;;;;0.10;0.10;;;;;;;21.07;nan;100207.25;5070597;28;20062;-84
2023/07/19 00:22:17;;;;;;;0.10;0.10;;;;;;;20.97;nan;100218.53;5057093;28;20031;-83
2023/07/19 00:24:43;;;;;;;0.10;0.10;;;;;;;20.91;nan;100214.06;5056263;28;20104;-84
2023/07/19 00:27:08;;;;;;;0.10;0.10;;;;;;;20.83;nan;100213.56;5063060;28;20029;-83
2023/07/19 00:29:34;;;;;;;0.10;0.10;;;;;;;20.67;nan;100212.31;5038579;28;20514;-83
2023/07/19 00:32:01;;;;;;;0.10;0.10;;;;;;;20.53;nan;100212.44;5057356;28;20089;-84
2023/07/19 00:34:26;;;;;;;0.10;0.10;;;;;;;20.43;nan;100220.22;5059949;28;20048;-83
2023/07/19 00:36:51;;;;;;;0.10;0.10;;;;;;;20.37;nan;100219.22;5046291;28;20398;-84
2023/07/19 00:39:17;;;;;;;0.10;0.10;;;;;;;20.35;nan;100215.13;5045641;28;20052;-84
2023/07/19 00:41:43;;;;;;;0.10;0.10;;;;;;;20.35;nan;100212.44;5070687;28;20037;-83
2023/07/19 00:44:08;;;;;;;0.10;0.10;;;;;;;20.34;nan;100216.19;5041926;28;20502;-83
2023/07/19 00:46:34;;;;;;;0.10;0.10;;;;;;;20.32;nan;100218.28;5045017;28;20044;-83
2023/07/19 00:49:02;;;;;;;0.10;0.10;;;;;;;20.26;nan;100224.53;5043181;28;20033;-84
2023/07/19 00:51:29;;;;;;;0.10;0.10;;;;;;;20.20;nan;100220.06;5027469;28;20036;-83
2023/07/19 00:53:55;;;;;;;0.10;0.10;;;;;;;20.17;nan;100228.56;5039786;28;20071;-84
2023/07/19 00:56:21;;;;;;;0.10;0.10;;;;;;;20.11;nan;100224.88;5041780;28;20056;-83
2023/07/19 00:58:50;;;;;;;0.10;0.10;;;;;;;20.12;nan;100232.72;5060573;28;20508;-84
2023/07/19 01:01:16;;;;;;;0.10;0.10;;;;;;;20.12;nan;100230.03;5038608;28;20037;-83
2023/07/19 01:03:44;;;;;;;0.10;0.10;;;;;;;20.18;nan;100231.00;5027364;28;20172;-83
2023/07/19 01:06:11;;;;;;;0.10;0.10;;;;;;;20.17;nan;100223.19;5056501;28;20203;-83
2023/07/19 01:08:40;;;;;;;0.10;0.10;;;;;;;20.14;nan;100217.22;5042164;28;20018;-83
2023/07/19 01:11:05;;;;;;;0.10;0.10;;;;;;;20.15;nan;100218.84;5058324;28;20636;-83
2023/07/19 01:13:31;;;;;;;0.10;0.10;;;;;;;20.15;nan;100215.34;5042368;28;20056;-84
2023/07/19 01:15:57;;;;;;;0.10;0.10;;;;;;;20.14;nan;100219.06;5043618;28;20079;-83
2023/07/19 01:18:25;;;;;;;0.10;0.10;;;;;;;20.12;nan;100215.81;5040983;28;20092;-83
2023/07/19 01:20:51;;;;;;;0.10;0.10;;;;;;;20.02;nan;100221.69;5060075;28;20394;-83
2023/07/19 01:23:16;;;;;;;0.10;0.10;;;;;;;19.95;nan;100210.19;5058249;28;20096;-83
2023/07/19 01:25:42;;;;;;;0.10;0.10;;;;;;;19.90;nan;100215.38;5056709;28;20037;-83
2023/07/19 01:28:09;;;;;;;0.10;0.10;;;;;;;19.87;nan;100213.16;5060877;28;20029;-83
2023/07/19 01:30:39;;;;;;;0.10;0.10;;;;;;;19.88;nan;100217.50;5066035;28;20044;-83
2023/07/19 01:33:05;;;;;;;0.10;0.10;;;;;;;19.89;nan;100225.28;5058772;28;20037;-83
2023/07/19 01:35:31;;;;;;;0.10;0.10;;;;;;;19.82;nan;100223.72;5078509;28;20037;-83
2023/07/19 01:37:56;;;;;;;0.10;0.10;;;;;;;19.75;nan;100220.28;5061289;28;20033;-83
2023/07/19 01:40:25;;;;;;;0.10;0.10;;;;;;;19.69;nan;100227.34;5063014;28;20055;-83
2023/07/19 01:42:53;;;;;;;0.10;0.10;;;;;;;19.64;nan;100221.75;5037418;28;20072;-84
2023/07/19 01:45:19;;;;;;;0.10;0.10;;;;;;;19.61;nan;100223.03;5037286;28;20064;-83
2023/07/19 01:47:45;;;;;;;0.10;0.10;;;;;;;19.56;nan;100220.19;5039298;28;20047;-84
2023/07/19 01:50:11;;;;;;;0.10;0.10;;;;;;;19.58;nan;100211.94;5062629;28;20093;-84
2023/07/19 01:52:38;;;;;;;0.10;0.10;;;;;;;19.61;nan;100208.78;5046812;28;20075;-84
2023/07/19 01:55:03;;;;;;;0.10;0.10;;;;;;;19.69;nan;100205.88;5047983;28;20086;-84
2023/07/19 01:57:31;;;;;;;0.10;0.10;;;;;;;19.69;nan;100195.97;5081288;28;20516;-84
2023/07/19 01:59:57;;;;;;;0.10;0.10;;;;;;;19.68;nan;100202.34;5052581;28;20037;-84
2023/07/19 02:02:23;;;;;;;0.10;0.10;;;;;;;19.70;nan;100199.47;5042151;28;20122;-85
2023/07/19 02:04:51;;;;;;;0.10;0.10;;;;;;;19.69;nan;100195.97;5063888;28;20041;-83
2023/07/19 02:07:16;;;;;;;0.10;0.10;;;;;;;19.66;nan;100198.22;5085217;28;20059;-83
2023/07/19 02:09:44;;;;;;;0.10;0.10;;;;;;;19.60;nan;100189.22;5075597;28;20059;-83
2023/07/19 02:12:10;;;;;;;0.10;0.10;;;;;;;19.56;nan;100188.00;5051143;28;20032;-83
2023/07/19 02:14:36;;;;;;;0.10;0.10;;;;;;;19.49;nan;100188.03;5067141;28;20043;-83
2023/07/19 02:17:02;;;;;;;0.10;0.10;;;;;;;19.39;nan;100187.72;5070535;28;20071;-83
2023/07/19 02:19:28;;;;;;;0.10;0.10;;;;;;;19.35;nan;100180.31;5060172;28;20489;-83
2023/07/19 02:21:53;;;;;;;0.10;0.10;;;;;;;19.33;nan;100171.69;5051047;28;20059;-84
2023/07/19 02:24:19;;;;;;;0.10;0.10;;;;;;;19.35;nan;100174.97;5061810;28;20049;-83
2023/07/19 02:26:45;;;;;;;0.10;0.10;;;;;;;19.32;nan;100165.50;5048432;28;20100;-82
2023/07/19 02:29:10;;;;;;;0.10;0.10;;;;;;;19.35;nan;100172.28;5050347;28;20021;-83
2023/07/19 02:31:39;;;;;;;0.10;0.10;;;;;;;19.31;nan;100159.31;5063283;28;20458;-83
2023/07/19 02:34:06;;;;;;;0.10;0.10;;;;;;;19.27;nan;100155.44;5046606;28;20033;-83
2023/07/19 02:36:34;;;;;;;0.10;0.10;;;;;;;19.24;nan;100158.56;5067265;28;20281;-83
2023/07/19 02:39:04;;;;;;;0.10;0.10;;;;;;;19.24;nan;100153.19;5063466;28;20045;-83
2023/07/19 02:41:32;;;;;;;0.10;0.10;;;;;;;19.16;nan;100171.38;5043616;28;20326;-83
2023/07/19 02:43:58;;;;;;;0.10;0.10;;;;;;;19.05;nan;100172.91;5046527;28;20067;-82
2023/07/19 02:46:24;;;;;;;0.10;0.10;;;;;;;18.96;nan;100174.22;5066709;28;20092;-83
2023/07/19 02:48:53;;;;;;;0.10;0.10;;;;;;;18.87;nan;100181.66;5063397;28;20113;-83
2023/07/19 02:51:18;;;;;;;0.10;0.10;;;;;;;18.75;nan;100181.50;5043929;28;20041;-83
2023/07/19 02:53:43;;;;;;;0.10;0.10;;;;;;;18.73;nan;100183.56;5058499;28;20060;-82
2023/07/19 02:56:09;;;;;;;0.10;0.10;;;;;;;18.74;nan;100184.41;5064058;28;20041;-83
2023/07/19 02:58:35;;;;;;;0.10;0.10;;;;;;;18.74;nan;100177.19;5079889;28;20271;-83
2023/07/19 03:01:00;;;;;;;0.10;0.10;;;;;;;18.78;nan;100177.59;5035949;28;20036;-83
2023/07/19 03:03:25;;;;;;;0.10;0.10;;;;;;;18.82;nan;100181.50;5057854;28;20089;-83
2023/07/19 03:05:51;;;;;;;0.10;0.10;;;;;;;18.83;nan;100196.50;5044031;28;20124;-82
2023/07/19 03:08:16;;;;;;;0.10;0.10;;;;;;;18.79;nan;100190.78;5037543;28;20059;-83
2023/07/19 03:10:42;;;;;;;0.10;0.10;;;;;;;18.74;nan;100192.44;5053830;28;20066;-83
2023/07/19 03:13:09;;;;;;;0.10;0.10;;;;;;;18.71;nan;100196.38;5046034;28;20029;-83
2023/07/19 03:15:35;;;;;;;0.10;0.10;;;;;;;18.64;nan;100192.91;5047291;28;20047;-83
2023/07/19 03:18:01;;;;;;;0.10;0.10;;;;;;;18.60;nan;100203.19;5047125;28;20571;-83
2023/07/19 03:20:27;;;;;;;0.10;0.10;;;;;;;18.54;nan;100201.34;5050641;28;20041;-82
2023/07/19 03:23:00;;;;;;;0.10;0.10;;;;;;;18.48;nan;100207.56;5047041;28;20041;-82
2023/07/19 03:25:27;;;;;;;0.10;0.10;;;;;;;18.40;nan;100213.16;5059379;28;20048;-82
2023/07/19 03:27:53;;;;;;;0.10;0.10;;;;;;;18.37;nan;100217.06;5067172;28;20029;-82
2023/07/19 03:30:18;;;;;;;0.10;0.10;;;;;;;18.34;nan;100214.00;5041357;28;20142;-83
2023/07/19 03:32:45;;;;;;;0.10;0.10;;;;;;;18.30;nan;100218.94;5063683;28;20028;-83
2023/07/19 03:35:10;;;;;;;0.10;0.10;;;;;;;18.29;nan;100219.97;5063069;28;20040;-83
2023/07/19 03:37:36;;;;;;;0.10;0.10;;;;;;;18.28;nan;100218.31;5064532;28;20033;-82
2023/07/19 03:40:04;;;;;;;0.10;0.10;;;;;;;18.33;nan;100213.19;5063718;28;20040;-83
2023/07/19 03:42:29;;;;;;;0.10;0.10;;;;;;;18.39;nan;100224.91;5045972;28;20047;-81
2023/07/19 03:44:55;;;;;;;0.10;0.10;;;;;;;18.45;nan;100227.56;5053480;28;20041;-82
2023/07/19 03:47:21;;;;;;;0.10;0.10;;;;;;;18.49;nan;100238.66;5057367;28;20047;-82
2023/07/19 03:49:46;;;;;;;0.10;0.10;;;;;;;18.43;nan;100234.16;5064976;28;20033;-83
2023/07/19 03:52:12;;;;;;;0.10;0.10;;;;;;;18.39;nan;100238.28;5055041;28;20516;-83
2023/07/19 03:54:37;;;;;;;0.10;0.10;;;;;;;18.38;nan;100244.69;5082618;28;20112;-82
2023/07/19 03:57:03;;;;;;;0.10;0.10;;;;;;;18.41;nan;100236.22;5067500;28;20048;-83
2023/07/19 03:59:30;;;;;;;0.10;0.10;;;;;;;18.42;nan;100244.06;5044398;28;20033;-84
2023/07/19 04:01:58;;;;;;;0.10;0.10;;;;;;;18.42;nan;100238.69;5048460;28;20045;-83
2023/07/19 04:04:26;;;;;;;0.10;0.10;;;;;;;18.42;nan;100246.72;5035300;28;20042;-84
2023/07/19 04:06:52;;;;;;;0.10;0.10;;;;;;;18.40;nan;100239.91;5048790;28;20032;-83
2023/07/19 04:09:18;;;;;;;0.10;0.10;;;;;;;18.45;nan;100248.16;5061109;28;21149;-83
2023/07/19 04:11:43;;;;;;;0.10;0.10;;;;;;;18.46;nan;100247.94;5063745;28;20037;-83
2023/07/19 04:14:09;;;;;;;0.10;0.10;;;;;;;18.42;nan;100246.72;5050984;28;20041;-82
2023/07/19 04:16:39;;;;;;;0.10;0.10;;;;;;;18.40;nan;100255.97;5047268;28;20061;-82
2023/07/19 04:19:04;;;;;;;0.10;0.10;;;;;;;18.39;nan;100249.81;5046107;28;20040;-83
2023/07/19 04:21:30;;;;;;;0.10;0.10;;;;;;;18.42;nan;100253.91;5051430;28;20033;-83
2023/07/19 04:23:56;;;;;;;0.10;0.10;;;;;;;18.44;nan;100252.66;5047552;28;20040;-84
2023/07/19 04:26:21;;;;;;;0.10;0.10;;;;;;;18.51;nan;100257.19;5053141;28;20070;-83
2023/07/19 04:28:47;;;;;;;0.10;0.10;;;;;;;18.57;nan;100253.69;5065142;28;20025;-84
2023/07/19 04:31:13;;;;;;;0.10;0.10;;;;;;;18.61;nan;100260.25;5033800;28;20044;-83
2023/07/19 04:33:38;;;;;;;0.10;0.10;;;;;;;18.62;nan;100252.00;5047174;28;20141;-83
2023/07/19 04:36:14;;;;;;;0.10;0.10;;;;;;;18.66;nan;100250.56;5070646;28;20396;-83
2023/07/19 04:38:40;;;;;;;0.10;0.10;;;;;;;18.75;nan;100253.00;5042067;28;20036;-83
2023/07/19 04:41:06;;;;;;;0.10;0.10;;;;;;;18.85;nan;100248.03;5038527;28;20390;-83
2023/07/19 04:43:31;;;;;;;0.10;0.10;;;;;;;18.90;nan;100250.88;5042378;28;20037;-83
2023/07/19 04:46:00;;;;;;;0.10;0.10;;;;;;;18.97;nan;100254.34;5063871;28;20045;-83
2023/07/19 04:48:28;;;;;;;0.10;0.10;;;;;;;19.06;nan;100253.06;5062120;28;20036;-83
2023/07/19 04:50:56;;;;;;;0.10;0.10;;;;;;;19.14;nan;100259.22;5038456;28;20227;-83
2023/07/19 04:53:22;;;;;;;0.10;0.10;;;;;;;19.23;nan;100265.97;5031683;28;20042;-83
2023/07/19 04:55:52;;;;;;;0.10;0.10;;;;;;;19.26;nan;100274.44;5057221;28;20041;-84
2023/07/19 04:58:18;;;;;;;0.10;0.10;;;;;;;19.31;nan;100274.59;5040570;28;20040;-83
2023/07/19 05:00:45;;;;;;;0.10;0.10;;;;;;;19.43;nan;100273.94;5036553;28;20041;-83
2023/07/19 05:03:10;;;;;;;0.10;0.10;;;;;;;19.53;nan;100274.25;5037288;28;20445;-83
2023/07/19 05:05:36;;;;;;;0.10;0.10;;;;;;;19.61;nan;100275.84;5057814;28;20033;-83
2023/07/19 05:08:04;;;;;;;0.10;0.10;;;;;;;19.69;nan;100281.00;5040678;28;20033;-83
2023/07/19 05:10:30;;;;;;;0.10;0.10;;;;;;;19.81;nan;100278.44;5030232;28;20044;-84
2023/07/19 05:12:55;;;;;;;0.10;0.10;;;;;;;19.88;nan;100284.56;5054100;28;20082;-83
2023/07/19 05:15:21;;;;;;;0.10;0.10;;;;;;;19.96;nan;100276.22;5042139;28;20037;-84
2023/07/19 05:17:47;;;;;;;0.10;0.10;;;;;;;20.06;nan;100279.22;5040826;28;20491;-84
2023/07/19 05:20:15;;;;;;;0.10;0.10;;;;;;;20.13;nan;100274.63;5056996;28;20052;-84
2023/07/19 05:22:41;;;;;;;0.10;0.10;;;;;;;20.26;nan;100275.53;5052363;28;20063;-84
2023/07/19 05:25:09;;;;;;;0.10;0.10;;;;;;;20.35;nan;100277.75;5062741;28;20029;-84
2023/07/19 05:27:34;;;;;;;0.10;0.10;;;;;;;20.46;nan;100280.72;5047308;28;20161;-84
2023/07/19 05:30:00;;;;;;;0.10;0.10;;;;;;;20.55;nan;100279.38;5065577;28;20169;-84
2023/07/19 05:32:26;;;;;;;0.10;0.10;;;;;;;20.69;nan;100285.44;5054261;28;20490;-84
2023/07/19 05:34:51;;;;;;;0.10;0.10;;;;;;;20.82;nan;100279.91;5037337;28;20059;-84
2023/07/19 05:37:16;;;;;;;0.10;0.10;;;;;;;20.96;nan;100281.41;5055559;28;20033;-84
2023/07/19 05:39:42;;;;;;;0.10;0.10;;;;;;;21.10;nan;100282.06;5054814;28;20545;-85
2023/07/19 05:42:07;;;;;;;0.00;0.00;;;;;;;21.15;nan;100278.69;5037767;28;20163;-84
2023/07/19 05:44:32;;;;;;;0.10;0.10;;;;;;;21.26;nan;100279.75;5059257;28;20494;-85
2023/07/19 05:46:58;;;;;;;0.10;0.10;;;;;;;21.46;nan;100276.84;5059373;28;20033;-84
2023/07/19 05:49:23;;;;;;;0.08;0.08;;;;;;;21.69;nan;100273.38;5057964;28;20040;-84
2023/07/19 05:51:49;;;;;;;0.00;0.00;;;;;;;22.06;nan;100279.38;5042875;28;20053;-84
2023/07/19 05:54:15;;;;;;;0.10;0.10;;;;;;;22.42;nan;100288.31;5056817;28;20029;-83
2023/07/19 05:56:41;;;;;;;0.10;0.10;;;;;;;22.85;nan;100284.34;5051338;28;20029;-84
2023/07/19 05:59:06;;;;;;;0.10;0.10;;;;;;;23.32;nan;100290.44;5075630;28;20039;-83
2023/07/19 06:01:31;;;;;;;0.10;0.10;;;;;;;23.58;nan;100280.09;5033463;28;20029;-83
2023/07/19 06:03:56;;;;;;;0.10;0.10;;;;;;;23.82;nan;100283.50;5058036;28;20175;-84
2023/07/19 06:06:22;;;;;;;0.10;0.10;;;;;;;24.12;nan;100275.06;5059151;28;20040;-84
2023/07/19 06:08:47;;;;;;;0.00;0.00;;;;;;;24.50;nan;100283.41;5061017;28;20311;-84
2023/07/19 06:11:12;;;;;;;0.00;0.00;;;;;;;24.78;nan;100283.25;5039625;28;20295;-83
2023/07/19 06:13:38;;;;;;;0.00;0.00;;;;;;;25.02;nan;100283.78;5068441;28;20462;-84
2023/07/19 06:16:04;;;;;;;0.00;0.00;;;;;;;25.27;nan;100282.47;5060390;28;20043;-83
2023/07/19 06:18:29;;;;;;;0.00;0.00;;;;;;;25.67;nan;100292.06;5059432;28;20044;-83
2023/07/19 06:20:54;;;;;;;0.00;0.00;;;;;;;25.95;nan;100285.53;5062642;28;20040;-83
2023/07/19 06:23:20;;;;;;;0.00;0.00;;;;;;;26.29;nan;100285.22;5050544;28;20032;-83
2023/07/19 06:25:47;;;;;;;0.00;0.00;;;;;;;26.61;nan;100292.47;5079379;28;20037;-85
2023/07/19 06:28:12;;;;;;;0.00;0.00;;;;;;;26.84;nan;100292.03;5059958;28;20036;-83
2023/07/19 06:30:38;;;;;;;0.00;0.00;;;;;;;26.95;nan;100287.44;5047954;28;20112;-83
2023/07/19 06:33:04;;;;;;;0.00;0.00;;;;;;;27.17;nan;100287.22;5036809;28;20035;-84
2023/07/19 06:35:29;;;;;;;0.00;0.00;;;;;;;27.35;nan;100288.66;5054935;28;20063;-83
2023/07/19 06:37:54;;;;;;;0.00;0.00;;;;;;;27.50;nan;100288.66;5057064;28;20036;-84
2023/07/19 06:40:19;;;;;;;0.00;0.00;;;;;;;27.70;nan;100290.59;5054416;28;20334;-83
2023/07/19 06:42:45;;;;;;;0.00;0.00;;;;;;;28.00;nan;100291.69;5056635;28;20271;-83
2023/07/19 06:45:10;;;;;;;0.00;0.00;;;;;;;28.25;nan;100293.56;5056791;28;20422;-84
2023/07/19 06:47:36;;;;;;;0.00;0.00;;;;;;;28.43;nan;100288.63;5055082;28;20108;-83
2023/07/19 06:50:01;;;;;;;0.00;0.00;;;;;;;28.44;nan;100290.25;5036442;28;20044;-84
2023/07/19 06:52:27;;;;;;;0.00;0.00;;;;;;;28.64;nan;100290.19;5062671;28;20208;-83
2023/07/19 06:54:52;;;;;;;0.00;0.00;;;;;;;28.98;nan;100292.22;5036300;28;20490;-83
2023/07/19 06:57:19;;;;;;;0.00;0.00;;;;;;;29.19;nan;100287.50;5058764;28;20116;-84
2023/07/19 06:59:45;;;;;;;0.00;0.00;;;;;;;29.36;nan;100285.22;5066112;28;20032;-83
2023/07/19 07:02:10;;;;;;;0.00;0.00;;;;;;;29.32;nan;100281.44;5068315;28;20043;-83
2023/07/19 07:04:35;;;;;;;0.00;0.00;;;;;;;29.57;nan;100285.06;5049093;28;20036;-83
2023/07/19 07:07:01;;;;;;;0.00;0.00;;;;;;;29.83;nan;100280.25;5054940;28;20289;-83
2023/07/19 07:09:28;;;;;;;0.00;0.00;;;;;;;29.65;nan;100284.44;5058796;28;20272;-83
2023/07/19 07:11:53;;;;;;;0.00;0.00;;;;;;;29.66;nan;100291.53;5043725;28;20280;-83
2023/07/19 07:14:18;;;;;;;0.00;0.00;;;;;;;29.70;nan;100289.91;5064448;28;20227;-83
2023/07/19 07:16:43;;;;;;;0.00;0.00;;;;;;;29.76;nan;100287.94;5058199;28;20039;-83
2023/07/19 07:19:10;;;;;;;0.00;0.00;;;;;;;29.99;nan;100291.84;5057060;28;20371;-84
2023/07/19 07:21:36;;;;;;;0.00;0.00;;;;;;;30.24;nan;100288.03;5066295;28;20078;-84
2023/07/19 07:24:01;;;;;;;0.00;0.00;;;;;;;30.43;nan;100286.22;5058864;28;20033;-83
2023/07/19 07:26:26;;;;;;;0.00;0.00;;;;;;;30.80;nan;100287.41;5070415;28;20080;-84
2023/07/19 07:28:52;;;;;;;0.00;0.00;;;;;;;30.81;nan;100290.94;5066909;28;20032;-84
2023/07/19 07:31:17;;;;;;;0.00;0.00;;;;;;;31.00;nan;100288.28;5057246;28;20045;-84
2023/07/19 07:33:43;;;;;;;0.00;0.00;;;;;;;31.10;nan;100288.13;5058366;28;20040;-85
2023/07/19 07:36:08;;;;;;;0.00;0.00;;;;;;;31.07;nan;100288.72;5042304;28;20038;-83
2023/07/19 07:38:34;;;;;;;0.00;0.00;;;;;;;31.14;nan;100291.09;5039593;28;20040;-85
2023/07/19 07:41:05;;;;;;;0.00;0.00;;;;;;;31.41;nan;100293.16;5070775;28;20040;-84
2023/07/19 07:43:30;;;;;;;0.00;0.00;;;;;;;31.65;nan;100288.38;5051603;28;20096;-84
2023/07/19 07:45:56;;;;;;;0.00;0.00;;;;;;;32.00;nan;100290.84;5078870;28;20056;-84
2023/07/19 07:48:22;;;;;;;0.00;0.00;;;;;;;32.12;nan;100288.44;5058625;28;20057;-84
2023/07/19 07:50:52;;;;;;;0.00;0.00;;;;;;;32.02;nan;100286.72;5049444;28;20029;-84
2023/07/19 07:53:18;;;;;;;0.00;0.00;;;;;;;31.99;nan;100292.78;5060687;28;20040;-84
2023/07/19 07:55:44;;;;;;;0.00;0.00;;;;;;;31.68;nan;100282.34;5075237;28;20041;-83
2023/07/19 07:58:10;;;;;;;0.00;0.00;;;;;;;32.02;nan;100283.97;5063458;28;20073;-83
2023/07/19 08:00:36;;;;;;;0.00;0.00;;;;;;;32.08;nan;100277.28;5045667;28;20050;-84
2023/07/19 08:03:01;;;;;;;0.00;0.00;;;;;;;32.19;nan;100272.44;5059321;28;20117;-83
2023/07/19 08:05:27;;;;;;;0.00;0.00;;;;;;;32.24;nan;100266.88;5066978;28;20033;-83
2023/07/19 08:07:52;;;;;;;0.00;0.00;;;;;;;32.36;nan;100269.09;5054467;28;20370;-83
2023/07/19 08:10:17;;;;;;;0.00;0.00;;;;;;;32.65;nan;100270.75;5053276;28;20043;-83
2023/07/19 08:12:43;;;;;;;0.00;0.00;;;;;;;32.94;nan;100262.16;5043377;28;20035;-84
2023/07/19 08:15:08;;;;;;;0.00;0.00;;;;;;;33.26;nan;100266.66;5058526;28;20033;-83
2023/07/19 08:17:34;;;;;;;0.00;0.00;;;;;;;33.57;nan;100260.47;5062178;28;20344;-84
2023/07/19 08:19:59;;;;;;;0.00;0.00;;;;;;;33.99;nan;100250.03;5069789;28;20071;-83
2023/07/19 08:22:28;;;;;;;0.00;0.00;;;;;;;34.29;nan;100255.84;5059362;28;20288;-83
2023/07/19 08:24:56;;;;;;;0.00;0.00;;;;;;;34.53;nan;100249.94;5060952;28;20052;-84
2023/07/19 08:27:21;;;;;;;0.00;0.00;;;;;;;34.64;nan;100252.09;5048738;28;20049;-85
2023/07/19 08:29:47;;;;;;;0.00;0.00;;;;;;;34.90;nan;100251.31;5060031;28;20504;-83
2023/07/19 08:32:12;;;;;;;0.00;0.00;;;;;;;34.70;nan;100250.00;5055189;28;20066;-83
2023/07/19 08:34:38;;;;;;;0.00;0.00;;;;;;;34.66;nan;100240.81;5044158;28;20045;-84
2023/07/19 08:37:03;;;;;;;0.00;0.00;;;;;;;34.36;nan;100240.53;5064917;28;20037;-84
2023/07/19 08:39:29;;;;;;;0.00;0.00;;;;;;;34.48;nan;100232.47;5071401;28;20303;-84
2023/07/19 08:41:57;;;;;;;0.00;0.00;;;;;;;34.81;nan;100232.06;5073160;28;20042;-84
2023/07/19 08:44:23;;;;;;;0.00;0.00;;;;;;;35.15;nan;100230.50;5065345;28;20099;-83
2023/07/19 08:46:49;;;;;;;0.00;0.00;;;;;;;35.33;nan;100227.72;5074975;28;20401;-83
2023/07/19 08:49:17;;;;;;;0.00;0.00;;;;;;;35.64;nan;100220.09;5069394;28;20049;-84
2023/07/19 08:51:43;;;;;;;0.00;0.00;;;;;;;36.14;nan;100219.44;5074292;28;20046;-84
2023/07/19 08:54:08;;;;;;;0.00;0.00;;;;;;;36.24;nan;100217.44;5065534;28;20123;-84
2023/07/19 08:56:34;;;;;;;0.00;0.00;;;;;;;36.02;nan;100215.72;5075376;28;20489;-85
2023/07/19 08:58:59;;;;;;;0.00;0.00;;;;;;;36.15;nan;100207.28;5057147;28;20418;-83
2023/07/19 09:01:25;;;;;;;0.00;0.00;;;;;;;36.59;nan;100231.03;5075787;28;20175;-83
2023/07/19 09:03:50;;;;;;;0.00;0.00;;;;;;;36.95;nan;100220.22;5049683;28;20029;-84
2023/07/19 09:06:23;;;;;;;0.00;0.00;;;;;;;37.25;nan;100219.34;5056039;28;20033;-82
2023/07/19 09:08:51;;;;;;;0.00;0.00;;;;;;;36.76;nan;100217.16;5038541;28;20569;-85
2023/07/19 09:11:21;;;;;;;0.00;0.00;;;;;;;37.20;nan;100204.59;5046967;28;20041;-84
2023/07/19 09:13:52;;;;;;;0.00;0.00;;;;;;;37.32;nan;100212.13;5052536;28;20521;-84
2023/07/19 09:16:26;;;;;;;0.00;0.00;;;;;;;37.73;nan;100207.63;5051964;28;20623;-83
2023/07/19 09:18:51;;;;;;;0.00;0.00;;;;;;;38.08;nan;100198.94;5051963;28;20132;-84
2023/07/19 09:21:16;;;;;;;0.00;0.00;;;;;;;38.15;nan;100199.19;5044384;28;20127;-85
2023/07/19 09:23:42;;;;;;;0.00;0.00;;;;;;;37.98;nan;100200.19;5048602;28;20124;-83
2023/07/19 09:26:07;;;;;;;0.00;0.00;;;;;;;38.03;nan;100197.22;5059038;28;20279;-86
2023/07/19 09:28:34;;;;;;;0.00;0.00;;;;;;;38.40;nan;100196.38;5057350;28;20470;-84
2023/07/19 09:31:02;;;;;;;0.00;0.00;;;;;;;38.41;nan;100193.28;5043884;28;20033;-84
2023/07/19 09:33:27;;;;;;;0.00;0.00;;;;;;;38.62;nan;100193.16;5070186;28;20158;-84
2023/07/19 09:35:56;;;;;;;0.00;0.00;;;;;;;38.74;nan;100197.03;5065364;28;20037;-86
2023/07/19 09:38:23;;;;;;;0.00;0.00;;;;;;;38.10;nan;100196.66;5034985;28;20490;-83
2023/07/19 09:40:50;;;;;;;0.00;0.00;;;;;;;38.52;nan;100195.56;5035966;28;20158;-85
2023/07/19 09:43:15;;;;;;;0.00;0.00;;;;;;;38.75;nan;100182.84;5036618;28;20218;-81
2023/07/19 09:45:42;;;;;;;0.00;0.00;;;;;;;39.04;nan;100180.91;5035270;28;20195;-79
2023/07/19 09:48:08;;;;;;;0.00;0.00;;;;;;;39.53;nan;100188.19;5043299;28;20398;-82
2023/07/19 09:50:39;;;;;;;0.00;0.00;;;;;;;39.89;nan;100184.38;5031298;28;20033;-82
2023/07/19 09:53:12;;;;;;;0.00;0.00;;;;;;;39.85;nan;100177.94;5059994;28;20040;-80
2023/07/19 09:55:39;;;;;;;0.00;0.00;;;;;;;40.67;nan;100182.59;5038404;28;20088;-83
2023/07/19 09:58:13;;;;;;;0.00;0.00;;;;;;;40.97;nan;100177.25;5048760;28;20043;-84
2023/07/19 10:00:39;;;;;;;0.00;0.00;;;;;;;40.85;nan;100162.75;5055682;28;20525;-84
2023/07/19 10:03:08;;;;;;;0.00;0.00;;;;;;;41.04;nan;100159.16;5035180;28;20419;-84
2023/07/19 10:05:35;;;;;;;0.00;0.00;;;;;;;41.31;nan;100160.88;5033748;28;20025;-84
2023/07/19 10:08:06;;;;;;;0.00;0.00;;;;;;;41.58;nan;100159.00;5055002;28;20095;-83
2023/07/19 10:10:35;;;;;;;;;;;;;;;41.50;nan;100154.47;5033920;28;20029;-84
2023/07/19 10:13:01;;;;;;;0.00;0.00;;;;;;;41.53;nan;100142.66;5032945;28;19947;-85
2023/07/19 10:15:26;;;;;;;0.00;0.00;;;;;;;41.36;nan;100143.13;5025747;28;20112;-84
2023/07/19 10:17:58;;;;;;;0.00;0.00;;;;;;;41.61;nan;100146.34;5034922;28;20454;-84
2023/07/19 10:20:30;;;;;;;0.00;0.00;;;;;;;41.65;nan;100143.63;5071281;28;20040;-84
2023/07/19 10:23:06;;;;;;;0.00;0.00;;;;;;;41.95;nan;100147.31;5079714;28;20152;-83
2023/07/19 10:25:45;;;;;;;0.00;0.00;;;;;;;41.55;nan;100139.50;5051952;28;20536;-84
2023/07/19 10:28:13;;;;;;;0.00;0.00;;;;;;;41.27;nan;100137.03;5047591;28;20040;-84
2023/07/19 10:30:42;;;;;;;0.00;0.00;;;;;;;41.25;nan;100137.38;5039700;28;20502;-83
2023/07/19 10:33:07;;;;;;;0.00;0.00;;;;;;;41.38;nan;100135.22;5051026;28;20081;-84
2023/07/19 10:35:32;;;;;;;0.00;0.00;;;;;;;41.86;nan;100132.03;5028919;28;20503;-84
2023/07/19 10:37:58;;;;;;;0.00;0.00;;;;;;;41.66;nan;100134.13;5053593;28;20033;-84
2023/07/19 10:40:23;;;;;;;0.00;0.00;;;;;;;42.03;nan;100123.22;5032103;28;20490;-84
2023/07/19 10:42:48;;;;;;;0.00;0.00;;;;;;;41.92;nan;100123.00;5050255;28;20063;-84
2023/07/19 10:45:15;;;;;;;0.00;0.00;;;;;;;41.75;nan;100126.34;5033909;28;20086;-84
2023/07/19 10:47:40;;;;;;;0.00;0.00;;;;;;;40.25;nan;100129.81;5066680;28;20056;-85
2023/07/19 10:50:07;;;;;;;0.00;0.00;;;;;;;38.82;nan;100121.44;5064444;28;20509;-84
2023/07/19 10:52:32;;;;;;;0.00;0.00;;;;;;;38.44;nan;100117.19;5041706;28;20181;-84
2023/07/19 10:54:57;;;;;;;0.00;0.00;;;;;;;38.97;nan;100112.41;5053438;28;20064;-83
2023/07/19 10:57:23;;;;;;;0.00;0.00;;;;;;;40.00;nan;100118.16;5035789;28;20292;-84
2023/07/19 10:59:51;;;;;;;0.00;0.00;;;;;;;40.59;nan;100119.03;5046876;28;20082;-85
2023/07/19 11:02:19;;;;;;;0.00;0.00;;;;;;;41.32;nan;100120.06;5063580;28;20505;-85
2023/07/19 11:04:48;;;;;;;0.00;0.00;;;;;;;40.31;nan;100112.56;5056803;28;20059;-84
2023/07/19 11:07:14;;;;;;;0.00;0.00;;;;;;;39.80;nan;100115.34;5036936;28;20036;-84
2023/07/19 11:09:49;;;;;;;0.00;0.00;;;;;;;39.17;nan;100098.72;5049937;28;20036;-84
2023/07/19 11:12:15;;;;;;;0.00;0.00;;;;;;;38.44;nan;100023.25;5060835;28;20559;-85
2023/07/19 11:14:43;;;;;;;0.00;0.00;;;;;;;37.46;nan;100002.19;5043644;28;20040;-83
2023/07/19 11:17:08;;;;;;;0.00;0.00;;;;;;;36.79;nan;100023.59;5042732;28;20029;-83
2023/07/19 11:19:34;;;;;;;0.00;0.00;;;;;;;;;;5042348;28;20043;-83
2023/07/19 11:22:00;;;;;;;0.00;0.00;;;;;;;37.24;nan;100038.50;5043168;28;20048;-83
2023/07/19 11:24:39;;;;;;;0.00;0.00;;;;;;;38.23;nan;100012.41;5035798;28;20041;-84
2023/07/19 11:27:08;;;;;;;0.00;0.00;;;;;;;38.94;nan;100008.06;5020070;28;20065;-85
2023/07/19 11:29:37;;;;;;;0.00;0.00;;;;;;;40.06;nan;100050.25;5032250;28;20032;-84
2023/07/19 11:32:35;;;;;;;0.00;0.00;;;;;;;41.27;nan;100006.63;5054971;28;20041;-84
2023/07/19 11:35:01;;;;;;;0.00;0.00;;;;;;;42.03;nan;100069.63;5033803;28;20045;-83
2023/07/19 11:37:31;;;;;;;0.00;0.00;;;;;;;42.79;nan;100075.75;5041720;28;20037;-86